Aeroporto :
LOGIN :

Iscrizione | Disclaimer

   EN    FR    IT 

 










Sommario :    VFR   VFR Marginale   IFR   IFR Intensivo   IFR Molto Intensivo
Visibilità : 
Base nubi : 
>= 8 km
>= 3000ft
5 / 8 km
1000 / 3000 ft
1500m / 5 km
500 / 1000 ft
800 / 1500m
200 / 500 ft
< 800m
< 200 ft
Simboli :   Temporali  Nebbia  Neve Forte  Precipitazioni Forti  Vento > 20 kt
SIGMETs :   Varie  Temporali  Ghiacco  Turbolenza  Onda orograficha  Ceneri Vulcaniche






- Altitudine del aeroporto : 433 ft
- Codice IATA : CCF


LFMK - Carcassonne

ULTIMO METAR :
  • 011630Z AUTO 09013KT 070V140 9999 OVC026 11/05 Q1015 BECMG 09015G25KT

METARs OBSOLETI :
  • 011600Z AUTO 09017KT 9999 OVC025 11/05 Q1015 BECMG 09015G25KT
  • 011530Z AUTO 09016KT 070V130 9999 OVC025 11/05 Q1015 BECMG 09015G25KT
  • 011500Z AUTO 10014G28KT 070V140 9999 OVC024 11/06 Q1015 NOSIG
  • 011430Z AUTO 09016G27KT 070V130 9999 OVC024 12/06 Q1015 NOSIG
  • 011400Z AUTO 10016G27KT 080V140 9999 BKN023 BKN042 12/06 Q1015 NOSIG

TAF TAF LFMK
Valido dal 01 a 15 ore il 02 a 15 ore UTC


011400Z 0115/0215 09015G25KT 9999 FEW015 BKN025
BECMG 0119/0121 09010KT
PROB30
TEMPO 0121/0206 BKN015 FEW025TCU



MetMap, La meteo Aeronautica in un colpo d'occhio ! - Copyright ORBIFLY Dicembre 2007 - Disclaimer

ORBIFLY MET'MAP TEAM :

Programmazione e sviluppo : Alexandra Zaïnal
Concezione : Baudouin d'Aumeries
Aiuto per la programmazione : Marc-Olivier Méhu
Supporto tecnico e logistico : Manuel Goepfert
Aiuto per la traduzione : Arnaldo La Scala

Contatto : metmap@orbifly.com




FONTI E CREDITI :

   NOAA